Time;durP1;ratioP1;P1;durP2;ratioP2;P2;SDS_P1;SDS_P2;PMS_P1;PMS_P2;Temp;Humidity;BMP_temperature;BMP_pressure;BME280_temperature;BME280_humidity;BME280_pressure;Samples;Min_cycle;Max_cycle;Signal;HPM_P1;HPM_P2
2022/12/05 00:00:27;;;;;;;;;;;;;;;40.58;nan;101635.94;5069261;28;19921;-62
2022/12/05 00:02:54;;;;;;;;;;;;;;;40.32;nan;101644.38;5073302;28;20375;-61
2022/12/05 00:05:20;;;;;;;;;;;;;;;40.12;nan;101632.31;5076409;28;19916;-62
2022/12/05 00:07:51;;;;;;;;;;;;;;;39.97;nan;101636.78;5070787;28;19974;-62
2022/12/05 00:10:18;;;;;;;;;;;;;;;39.80;nan;101630.28;5068325;28;19928;-62
2022/12/05 00:12:44;;;;;;;;;;;;;;;39.68;nan;101628.97;5069912;28;19921;-61
2022/12/05 00:15:11;;;;;;;;;;;;;;;39.65;nan;101626.19;5073425;28;20268;-62
2022/12/05 00:17:42;;;;;;;;;;;;;;;39.50;nan;101637.91;5066172;28;19916;-63
2022/12/05 00:20:10;;;;;;;;;;;;;;;39.19;nan;101634.56;5074435;28;19958;-62
2022/12/05 00:22:38;;;;;;;;;;;;;;;39.09;nan;101635.59;5067344;28;19927;-62
2022/12/05 00:25:08;;;;;;;;;;;;;;;38.96;nan;101640.31;5069383;28;19916;-61
2022/12/05 00:27:36;;;;;;;;;;;;;;;38.74;nan;101633.47;5104617;28;21134;-63
2022/12/05 00:30:03;;;;;;;;;;;;;;;38.49;nan;101631.13;5065499;28;19963;-64
2022/12/05 00:32:30;;;;;;;;;;;;;;;38.39;nan;101632.94;5068373;28;19928;-61
2022/12/05 00:34:57;;;;;;;;;;;;;;;38.23;nan;101636.47;5068993;28;19927;-62
2022/12/05 00:37:24;;;;;;;;;;;;;;;38.09;nan;101634.69;5071199;28;20438;-61
2022/12/05 00:39:51;;;;;;;;;;;;;;;37.88;nan;101623.69;5066965;28;19970;-62
2022/12/05 00:42:19;;;;;;;;;;;;;;;37.79;nan;101612.91;5075771;28;19980;-63
2022/12/05 00:44:50;;;;;;;;;;;;;;;37.62;nan;101616.81;5065462;28;20344;-64
2022/12/05 00:47:16;;;;;;;;;;;;;;;37.53;nan;101610.91;5063494;28;19920;-63
2022/12/05 00:49:44;;;;;;;;;;;;;;;37.43;nan;101617.53;5061939;28;19920;-62
2022/12/05 00:52:12;;;;;;;;;;;;;;;37.36;nan;101621.28;5059552;28;19924;-63
2022/12/05 00:54:39;;;;;;;;;;;;;;;37.16;nan;101623.13;5074253;28;19928;-64
2022/12/05 00:57:05;;;;;;;;;;;;;;;37.20;nan;101623.91;5061683;28;20286;-63
2022/12/05 00:59:32;;;;;;;;;;;;;;;36.99;nan;101621.38;5062878;28;19921;-62
2022/12/05 01:02:01;;;;;;;;;;;;;;;36.90;nan;101621.88;5096457;28;19920;-62
2022/12/05 01:04:28;;;;;;;;;;;;;;;36.77;nan;101627.28;5071311;28;20378;-63
2022/12/05 01:06:57;;;;;;;;;;;;;;;36.68;nan;101632.66;5056628;28;20012;-63
2022/12/05 01:09:24;;;;;;;;;;;;;;;36.62;nan;101623.81;5057025;28;19952;-63
2022/12/05 01:11:51;;;;;;;;;;;;;;;36.56;nan;101625.50;5060105;28;20312;-62
2022/12/05 01:14:18;;;;;;;;;;;;;;;36.44;nan;101631.69;5100674;28;19920;-62
2022/12/05 01:16:46;;;;;;;;;;;;;;;36.47;nan;101630.09;5065903;28;19921;-62
2022/12/05 01:19:14;;;;;;;;;;;;;;;36.44;nan;101630.91;5069511;28;19955;-62
2022/12/05 01:21:41;;;;;;;;;;;;;;;36.41;nan;101638.22;5069797;28;20015;-62
2022/12/05 01:24:08;;;;;;;;;;;;;;;36.34;nan;101638.31;5068966;28;20032;-62
2022/12/05 01:26:34;;;;;;;;;;;;;;;36.16;nan;101641.28;5070741;28;19967;-61
2022/12/05 01:29:01;;;;;;;;;;;;;;;36.07;nan;101655.09;5062701;28;19971;-62
2022/12/05 01:31:29;;;;;;;;;;;;;;;35.94;nan;101651.19;5072193;28;19928;-62
2022/12/05 01:33:56;;;;;;;;;;;;;;;35.95;nan;101658.47;5100327;27;19925;-62
2022/12/05 01:36:23;;;;;;;;;;;;;;;35.93;nan;101655.25;5070118;28;20011;-62
2022/12/05 01:38:49;;;;;;;;;;;;;;;35.95;nan;101649.97;5073207;28;19964;-62
2022/12/05 01:41:17;;;;;;;;;;;;;;;35.96;nan;101643.88;5059302;28;20003;-62
2022/12/05 01:43:54;;;;;;;;;;;;;;;35.89;nan;101643.13;5077070;28;19926;-62
2022/12/05 01:46:21;;;;;;;;;;;;;;;35.77;nan;101647.25;5063988;28;19924;-61
2022/12/05 01:48:47;;;;;;;;;;;;;;;35.67;nan;101637.63;5076189;28;19920;-62
2022/12/05 01:51:14;;;;;;;;;;;;;;;35.70;nan;101636.78;5074045;28;19927;-62
2022/12/05 01:53:41;;;;;;;;;;;;;;;35.66;nan;101629.56;5090475;28;19924;-62
2022/12/05 01:56:08;;;;;;;;;;;;;;;35.58;nan;101631.66;5072082;28;19920;-62
2022/12/05 01:58:36;;;;;;;;;;;;;;;35.67;nan;101633.97;5072354;28;19920;-62
2022/12/05 02:01:03;;;;;;;;;;;;;;;35.66;nan;101630.34;5074337;28;19924;-62
2022/12/05 02:03:30;;;;;;;;;;;;;;;35.72;nan;101634.34;5063960;28;19942;-62
2022/12/05 02:05:58;;;;;;;;;;;;;;;35.71;nan;101631.94;5068175;28;20006;-61
2022/12/05 02:08:26;;;;;;;;;;;;;;;35.69;nan;101632.34;5106611;27;19974;-62
2022/12/05 02:10:54;;;;;;;;;;;;;;;35.56;nan;101633.28;5077299;28;19920;-62
2022/12/05 02:13:33;;;;;;;;;;;;;;;35.52;nan;101633.28;5077097;28;19938;-63
2022/12/05 02:16:22;;;;;;;;;;;;;;;35.42;nan;101642.66;5074521;28;19963;-62
2022/12/05 02:18:49;;;;;;;;;;;;;;;35.34;nan;101639.03;5075993;28;20019;-61
2022/12/05 02:21:33;;;;;;;;;;;;;;;35.17;nan;101645.56;5077444;28;19974;-61
2022/12/05 02:24:20;;;;;;;;;;;;;;;35.16;nan;101634.69;5074883;28;19923;-62
2022/12/05 02:26:55;;;;;;;;;;;;;;;35.28;nan;101637.06;5069873;28;20393;-61
2022/12/05 02:29:21;;;;;;;;;;;;;;;35.00;nan;101638.00;5070539;28;20145;-61
2022/12/05 02:31:56;;;;;;;;;;;;;;;35.06;nan;101636.38;5078205;28;19920;-61
2022/12/05 02:34:22;;;;;;;;;;;;;;;35.15;nan;101639.53;5081181;28;19978;-61
2022/12/05 02:37:09;;;;;;;;;;;;;;;35.17;nan;101647.59;5078310;27;19981;-61
2022/12/05 02:39:52;;;;;;;;;;;;;;;35.18;nan;101646.38;5068177;28;19975;-61
2022/12/05 02:42:24;;;;;;;;;;;;;;;35.24;nan;101642.72;5073908;28;19948;-62
2022/12/05 02:44:55;;;;;;;;;;;;;;;35.26;nan;101640.28;5076742;28;19932;-61
2022/12/05 02:47:25;;;;;;;;;;;;;;;35.24;nan;101637.09;5070140;28;20429;-61
2022/12/05 02:49:52;;;;;;;;;;;;;;;35.14;nan;101638.72;5085518;28;20386;-61
2022/12/05 02:52:21;;;;;;;;;;;;;;;35.20;nan;101633.47;5072191;28;19986;-61
2022/12/05 02:54:48;;;;;;;;;;;;;;;35.28;nan;101634.22;5068869;28;19944;-61
2022/12/05 02:57:16;;;;;;;;;;;;;;;35.34;nan;101629.72;5067064;28;19921;-61
2022/12/05 02:59:42;;;;;;;;;;;;;;;35.18;nan;101621.75;5073895;28;19974;-61
2022/12/05 03:02:20;;;;;;;;;;;;;;;35.01;nan;101623.50;5098040;27;19929;-61
2022/12/05 03:04:46;;;;;;;;;;;;;;;34.95;nan;101624.31;5063292;28;19920;-61
2022/12/05 03:07:13;;;;;;;;;;;;;;;34.94;nan;101622.69;5074836;28;19935;-61
2022/12/05 03:09:53;;;;;;;;;;;;;;;34.88;nan;101625.16;5079622;28;19920;-61
2022/12/05 03:12:22;;;;;;;;;;;;;;;34.86;nan;101633.25;5073432;28;19995;-61
2022/12/05 03:14:52;;;;;;;;;;;;;;;34.79;nan;101621.91;5076083;28;19924;-61
2022/12/05 03:17:24;;;;;;;;;;;;;;;34.82;nan;101621.09;5079954;28;19924;-61
2022/12/05 03:19:53;;;;;;;;;;;;;;;34.87;nan;101620.72;5068318;28;20732;-64
2022/12/05 03:22:37;;;;;;;;;;;;;;;34.81;nan;101623.13;5074879;28;20017;-61
2022/12/05 03:25:04;;;;;;;;;;;;;;;34.79;nan;101627.56;5069319;28;20413;-61
2022/12/05 03:27:50;;;;;;;;;;;;;;;34.73;nan;101617.91;5071215;28;19981;-62
2022/12/05 03:30:17;;;;;;;;;;;;;;;34.75;nan;101621.13;5069447;28;19928;-61
2022/12/05 03:33:05;;;;;;;;;;;;;;;34.78;nan;101617.47;5070614;28;19921;-61
2022/12/05 03:35:50;;;;;;;;;;;;;;;34.72;nan;101624.78;5069451;28;19924;-61
2022/12/05 03:38:26;;;;;;;;;;;;;;;34.72;nan;101627.59;5106600;27;19933;-62
2022/12/05 03:40:52;;;;;;;;;;;;;;;34.60;nan;101636.50;5073211;28;19921;-61
2022/12/05 03:43:41;;;;;;;;;;;;;;;34.60;nan;101633.69;5073089;28;19944;-62
2022/12/05 03:46:15;;;;;;;;;;;;;;;34.58;nan;101639.75;5069494;28;20526;-61
2022/12/05 03:49:04;;;;;;;;;;;;;;;34.50;nan;101641.78;5069674;28;20022;-61
2022/12/05 03:51:34;;;;;;;;;;;;;;;34.58;nan;101633.28;5054983;28;20556;-61
2022/12/05 03:54:11;;;;;;;;;;;;;;;34.59;nan;101637.72;5072291;28;20019;-62
2022/12/05 03:56:46;;;;;;;;;;;;;;;34.61;nan;101632.47;5060064;28;19944;-61
2022/12/05 03:59:34;;;;;;;;;;;;;;;34.58;nan;101638.94;5060863;28;19925;-62
2022/12/05 04:02:03;;;;;;;;;;;;;;;34.47;nan;101633.31;5057961;28;19921;-61
2022/12/05 04:04:41;;;;;;;;;;;;;;;34.36;nan;101641.00;5061992;28;20606;-61
2022/12/05 04:07:09;;;;;;;;;;;;;;;34.41;nan;101629.31;5068694;28;19920;-61
2022/12/05 04:09:58;;;;;;;;;;;;;;;34.31;nan;101633.75;5069955;28;19920;-61
2022/12/05 04:12:30;;;;;;;;;;;;;;;34.35;nan;101634.56;5061461;28;19920;-61
2022/12/05 04:14:58;;;;;;;;;;;;;;;34.41;nan;101635.75;5069981;28;19924;-61
2022/12/05 04:17:27;;;;;;;;;;;;;;;34.31;nan;101642.22;5068085;28;19920;-61
2022/12/05 04:22:42;;;;;;;;;;;;;;;34.22;nan;101641.81;5074103;28;19924;-61
2022/12/05 04:28:12;;;;;;;;;;;;;;;34.07;nan;101637.38;5070801;28;19921;-62
2022/12/05 04:30:42;;;;;;;;;;;;;;;34.08;nan;101636.16;5064392;28;20451;-61
2022/12/05 04:33:15;;;;;;;;;;;;;;;34.06;nan;101647.88;5064834;28;19932;-59
2022/12/05 04:35:45;;;;;;;;;;;;;;;34.20;nan;101649.88;5068952;28;19920;-61
2022/12/05 04:38:17;;;;;;;;;;;;;;;34.22;nan;101655.91;5069861;28;19928;-61
2022/12/05 04:40:51;;;;;;;;;;;;;;;34.19;nan;101659.56;5069934;28;19920;-61
2022/12/05 04:43:18;;;;;;;;;;;;;;;34.22;nan;101667.19;5079751;28;20400;-63
2022/12/05 04:45:46;;;;;;;;;;;;;;;34.21;nan;101674.06;5075704;28;19932;-63
2022/12/05 04:48:16;;;;;;;;;;;;;;;34.15;nan;101670.03;5075129;28;19928;-63
2022/12/05 04:50:44;;;;;;;;;;;;;;;34.10;nan;101670.44;5070600;28;19927;-63
2022/12/05 04:53:12;;;;;;;;;;;;;;;34.17;nan;101665.59;5071163;28;19994;-63
2022/12/05 04:55:41;;;;;;;;;;;;;;;34.09;nan;101663.16;5106429;28;20011;-63
2022/12/05 04:58:13;;;;;;;;;;;;;;;33.89;nan;101666.41;5069079;28;19925;-63
2022/12/05 05:00:46;;;;;;;;;;;;;;;33.87;nan;101668.00;5069356;28;20026;-63
2022/12/05 05:03:24;;;;;;;;;;;;;;;34.05;nan;101662.38;5071146;28;19927;-63
2022/12/05 05:05:52;;;;;;;;;;;;;;;33.90;nan;101676.47;5074131;28;20019;-63
2022/12/05 05:08:19;;;;;;;;;;;;;;;33.73;nan;101663.13;5082309;28;19929;-63
2022/12/05 05:11:06;;;;;;;;;;;;;;;33.67;nan;101672.41;5076387;28;19920;-62
2022/12/05 05:13:32;;;;;;;;;;;;;;;33.68;nan;101668.38;5078077;28;19993;-62
2022/12/05 05:15:58;;;;;;;;;;;;;;;32.84;nan;101664.84;5078136;28;20374;-62
2022/12/05 05:18:25;;;;;;;;;;;;;;;32.62;nan;101661.88;5073620;28;19935;-62
2022/12/05 05:20:51;;;;;;;;;;;;;;;33.02;nan;101654.47;5073452;28;20011;-62
2022/12/05 05:23:17;;;;;;;;;;;;;;;33.40;nan;101653.03;5077159;28;20375;-63
2022/12/05 05:25:43;;;;;;;;;;;;;;;33.51;nan;101658.69;5074186;28;20436;-62
2022/12/05 05:28:10;;;;;;;;;;;;;;;32.81;nan;101657.19;5074881;28;19969;-62
2022/12/05 05:30:36;;;;;;;;;;;;;;;33.22;nan;101661.41;5073131;28;19981;-63
2022/12/05 05:33:02;;;;;;;;;;;;;;;33.15;nan;101658.53;5072267;28;19927;-63
2022/12/05 05:35:28;;;;;;;;;;;;;;;33.49;nan;101655.44;5076420;28;19946;-63
2022/12/05 05:37:55;;;;;;;;;;;;;;;33.56;nan;101661.09;5078916;28;20370;-62
2022/12/05 05:40:21;;;;;;;;;;;;;;;33.62;nan;101662.31;5075381;28;19921;-63
2022/12/05 05:42:49;;;;;;;;;;;;;;;33.54;nan;101664.31;5068158;28;19928;-62
2022/12/05 05:45:16;;;;;;;;;;;;;;;33.52;nan;101677.19;5076554;28;19928;-62
2022/12/05 05:47:43;;;;;;;;;;;;;;;33.53;nan;101676.00;5077214;28;19920;-62
2022/12/05 05:50:10;;;;;;;;;;;;;;;33.54;nan;101672.78;5076668;28;19973;-63
2022/12/05 05:52:37;;;;;;;;;;;;;;;33.55;nan;101676.41;5075620;28;19936;-64
2022/12/05 05:55:04;;;;;;;;;;;;;;;33.46;nan;101676.78;5075521;28;20401;-62
2022/12/05 05:57:31;;;;;;;;;;;;;;;33.36;nan;101674.72;5078651;28;20566;-62
2022/12/05 05:59:57;;;;;;;;;;;;;;;33.31;nan;101670.28;5070211;28;19920;-61
2022/12/05 06:02:24;;;;;;;;;;;;;;;33.28;nan;101671.06;5073751;28;19928;-61
2022/12/05 06:04:50;;;;;;;;;;;;;;;33.23;nan;101668.66;5073685;28;19935;-62
2022/12/05 06:07:16;;;;;;;;;;;;;;;33.29;nan;101663.44;5086632;28;20456;-62
2022/12/05 06:09:42;;;;;;;;;;;;;;;33.46;nan;101656.25;5080713;28;19916;-62
2022/12/05 06:12:09;;;;;;;;;;;;;;;33.43;nan;101648.59;5070102;28;19927;-63
2022/12/05 06:14:35;;;;;;;;;;;;;;;33.32;nan;101660.63;5064861;28;20365;-63
2022/12/05 06:17:01;;;;;;;;;;;;;;;33.12;nan;101653.72;5074461;28;20413;-62
2022/12/05 06:19:28;;;;;;;;;;;;;;;33.28;nan;101659.00;5112055;27;19923;-62
2022/12/05 06:21:54;;;;;;;;;;;;;;;33.37;nan;101655.81;5065565;28;20013;-61
2022/12/05 06:24:20;;;;;;;;;;;;;;;33.26;nan;101650.13;5074420;28;19921;-62
2022/12/05 06:26:47;;;;;;;;;;;;;;;33.42;nan;101650.63;5073847;28;19928;-62
2022/12/05 06:29:13;;;;;;;;;;;;;;;33.43;nan;101652.22;5073268;28;19925;-62
2022/12/05 06:31:40;;;;;;;;;;;;;;;32.64;nan;101648.22;5076243;28;20396;-62
2022/12/05 06:34:07;;;;;;;;;;;;;;;31.74;nan;101645.91;5080458;28;20018;-62
2022/12/05 06:36:33;;;;;;;;;;;;;;;32.53;nan;101638.94;5071503;28;19947;-63
2022/12/05 06:38:59;;;;;;;;;;;;;;;32.95;nan;101641.16;5076224;28;19921;-62
2022/12/05 06:41:26;;;;;;;;;;;;;;;33.11;nan;101638.00;5072291;28;19921;-61
2022/12/05 06:43:57;;;;;;;;;;;;;;;33.19;nan;101633.19;5071072;28;19924;-61
2022/12/05 06:46:24;;;;;;;;;;;;;;;33.22;nan;101630.41;5069731;28;19924;-61
2022/12/05 06:48:57;;;;;;;;;;;;;;;33.24;nan;101625.19;5087264;28;20011;-62
2022/12/05 06:51:26;;;;;;;;;;;;;;;33.09;nan;101628.34;5070691;28;19990;-62
2022/12/05 06:53:52;;;;;;;;;;;;;;;33.11;nan;101623.94;5073578;28;20388;-62
2022/12/05 06:56:19;;;;;;;;;;;;;;;33.09;nan;101620.72;5075135;28;19922;-62
2022/12/05 06:58:51;;;;;;;;;;;;;;;32.99;nan;101625.09;5075400;28;19925;-63
2022/12/05 07:04:04;;;;;;;;;;;;;;;32.92;nan;101618.63;5067699;28;19974;-62
2022/12/05 07:06:31;;;;;;;;;;;;;;;33.04;nan;101616.28;5069293;28;19920;-63
2022/12/05 07:08:58;;;;;;;;;;;;;;;33.00;nan;101614.63;5069133;27;19921;-62
2022/12/05 07:11:24;;;;;;;;;;;;;;;32.87;nan;101610.56;5070340;28;19966;-62
2022/12/05 07:13:51;;;;;;;;;;;;;;;32.80;nan;101616.97;5068498;28;19959;-60
2022/12/05 07:16:17;;;;;;;;;;;;;;;32.80;nan;101610.50;5066647;28;19920;-61
2022/12/05 07:18:44;;;;;;;;;;;;;;;32.74;nan;101610.06;5065237;28;19967;-63
2022/12/05 07:21:14;;;;;;;;;;;;;;;32.72;nan;101615.31;5063784;28;19937;-62
2022/12/05 07:23:43;;;;;;;;;;;;;;;32.84;nan;101606.50;5064141;28;19943;-61
2022/12/05 07:26:11;;;;;;;;;;;;;;;32.88;nan;101612.19;5064734;28;19963;-60
2022/12/05 07:28:37;;;;;;;;;;;;;;;32.89;nan;101613.78;5068284;28;19920;-61
2022/12/05 07:31:05;;;;;;;;;;;;;;;32.84;nan;101608.53;5069343;28;19928;-61
2022/12/05 07:33:31;;;;;;;;;;;;;;;32.84;nan;101611.34;5069172;28;19966;-60
2022/12/05 07:35:59;;;;;;;;;;;;;;;32.78;nan;101601.63;5067545;28;19924;-62
2022/12/05 07:38:25;;;;;;;;;;;;;;;32.72;nan;101598.41;5075465;28;19983;-61
2022/12/05 07:40:51;;;;;;;;;;;;;;;32.68;nan;101598.41;5077437;28;20133;-61
2022/12/05 07:43:18;;;;;;;;;;;;;;;32.42;nan;101595.84;5070793;28;19955;-61
2022/12/05 07:45:44;;;;;;;;;;;;;;;32.45;nan;101589.41;5070269;28;19955;-61
2022/12/05 07:48:11;;;;;;;;;;;;;;;32.62;nan;101588.69;5069777;28;20260;-61
2022/12/05 07:50:37;;;;;;;;;;;;;;;32.75;nan;101586.34;5093151;28;19993;-61
2022/12/05 07:53:04;;;;;;;;;;;;;;;32.73;nan;101588.75;5079556;28;19921;-61
2022/12/05 07:55:31;;;;;;;;;;;;;;;32.30;nan;101587.72;5071339;28;19928;-61
2022/12/05 07:57:58;;;;;;;;;;;;;;;32.39;nan;101594.63;5069053;28;19920;-61
2022/12/05 08:00:24;;;;;;;;;;;;;;;32.51;nan;101595.50;5063126;28;19924;-61
2022/12/05 08:02:50;;;;;;;;;;;;;;;32.53;nan;101591.09;5070860;28;19935;-61
2022/12/05 08:05:16;;;;;;;;;;;;;;;32.54;nan;101595.50;5074169;28;19925;-62
2022/12/05 08:07:43;;;;;;;;;;;;;;;32.46;nan;101585.41;5071911;28;19924;-62
2022/12/05 08:10:09;;;;;;;;;;;;;;;32.49;nan;101584.59;5071223;28;19917;-61
2022/12/05 08:12:36;;;;;;;;;;;;;;;32.43;nan;101574.94;5063670;28;19928;-62
2022/12/05 08:15:03;;;;;;;;;;;;;;;32.50;nan;101574.16;5071926;28;19927;-61
2022/12/05 08:17:31;;;;;;;;;;;;;;;32.45;nan;101564.09;5072049;28;20036;-61
2022/12/05 08:19:57;;;;;;;;;;;;;;;32.44;nan;101559.66;5068160;28;19924;-61
2022/12/05 08:22:23;;;;;;;;;;;;;;;32.38;nan;101564.06;5086331;28;19920;-62
2022/12/05 08:24:50;;;;;;;;;;;;;;;32.39;nan;101571.31;5068694;28;20422;-62
2022/12/05 08:27:16;;;;;;;;;;;;;;;32.42;nan;101574.13;5066852;28;20371;-61
2022/12/05 08:29:43;;;;;;;;;;;;;;;32.39;nan;101566.47;5084722;28;19927;-62
2022/12/05 08:32:09;;;;;;;;;;;;;;;32.47;nan;101561.69;5084620;28;19921;-62
2022/12/05 08:34:36;;;;;;;;;;;;;;;32.15;nan;101553.06;5084143;28;19920;-62
2022/12/05 08:37:02;;;;;;;;;;;;;;;32.17;nan;101557.09;5077551;28;19947;-61
2022/12/05 08:39:28;;;;;;;;;;;;;;;32.02;nan;101546.94;5090364;28;19916;-61
2022/12/05 08:41:55;;;;;;;;;;;;;;;32.20;nan;101541.44;5082317;28;19934;-61
2022/12/05 08:44:21;;;;;;;;;;;;;;;32.23;nan;101537.00;5087374;28;19920;-61
2022/12/05 08:46:49;;;;;;;;;;;;;;;32.20;nan;101549.88;5089333;28;19931;-61
2022/12/05 08:49:15;;;;;;;;;;;;;;;32.30;nan;101543.50;5079718;28;19916;-61
2022/12/05 08:51:42;;;;;;;;;;;;;;;32.36;nan;101541.16;5092818;28;19920;-61
2022/12/05 08:54:08;;;;;;;;;;;;;;;32.34;nan;101546.38;5083501;28;19916;-61
2022/12/05 08:56:34;;;;;;;;;;;;;;;32.44;nan;101537.16;5092427;28;19920;-61
2022/12/05 08:59:04;;;;;;;;;;;;;;;32.47;nan;101542.78;5081544;28;19924;-62
2022/12/05 09:01:31;;;;;;;;;;;;;;;32.46;nan;101548.81;5092696;28;19924;-62
2022/12/05 09:04:03;;;;;;;;;;;;;;;32.42;nan;101540.38;5082130;28;19916;-62
2022/12/05 09:06:29;;;;;;;;;;;;;;;32.45;nan;101536.75;5085838;28;20383;-62
2022/12/05 09:08:57;;;;;;;;;;;;;;;32.30;nan;101542.69;5089998;28;20359;-62
2022/12/05 09:11:25;;;;;;;;;;;;;;;32.30;nan;101543.50;5079373;28;19920;-62
2022/12/05 09:13:52;;;;;;;;;;;;;;;32.14;nan;101541.00;5090678;28;20367;-62
2022/12/05 09:16:20;;;;;;;;;;;;;;;31.82;nan;101548.41;5084793;28;20672;-62
2022/12/05 09:18:47;;;;;;;;;;;;;;;32.10;nan;101545.78;5082932;28;19916;-62
2022/12/05 09:21:15;;;;;;;;;;;;;;;32.22;nan;101543.84;5080724;28;19928;-62
2022/12/05 09:23:42;;;;;;;;;;;;;;;32.24;nan;101552.69;5063389;28;19958;-62
2022/12/05 09:26:12;;;;;;;;;;;;;;;32.15;nan;101542.63;5086972;28;19927;-62
2022/12/05 09:28:38;;;;;;;;;;;;;;;32.21;nan;101540.22;5083917;28;19920;-62
2022/12/05 09:31:06;;;;;;;;;;;;;;;32.20;nan;101537.81;5091023;28;19927;-62
2022/12/05 09:33:34;;;;;;;;;;;;;;;32.11;nan;101529.72;5078886;28;19970;-62
2022/12/05 09:36:05;;;;;;;;;;;;;;;32.26;nan;101530.59;5089226;28;19920;-62
2022/12/05 09:38:32;;;;;;;;;;;;;;;32.22;nan;101536.22;5086241;28;19963;-62
2022/12/05 09:41:15;;;;;;;;;;;;;;;32.19;nan;101536.19;5080923;28;19921;-62
2022/12/05 09:43:46;;;;;;;;;;;;;;;32.09;nan;101532.09;5079168;28;20395;-62
2022/12/05 09:46:30;;;;;;;;;;;;;;;30.60;nan;101539.88;5087580;28;20394;-62
2022/12/05 09:48:57;;;;;;;;;;;;;;;31.04;nan;101539.19;5089520;28;19970;-62
2022/12/05 09:51:25;;;;;;;;;;;;;;;31.62;nan;101530.16;5077349;28;20370;-62
2022/12/05 09:53:52;;;;;;;;;;;;;;;31.87;nan;101531.16;5090060;28;19966;-62
2022/12/05 09:56:18;;;;;;;;;;;;;;;31.88;nan;101520.72;5071075;28;19924;-60
2022/12/05 09:58:44;;;;;;;;;;;;;;;31.91;nan;101519.94;5074874;28;19963;-60
2022/12/05 10:01:20;;;;;;;;;;;;;;;31.96;nan;101517.59;5075039;28;19920;-60
2022/12/05 10:04:00;;;;;;;;;;;;;;;31.97;nan;101524.03;5043953;28;20065;-60
2022/12/05 10:06:33;;;;;;;;;;;;;;;31.92;nan;101522.34;5074914;28;20019;-60
2022/12/05 10:09:08;;;;;;;;;;;;;;;31.97;nan;101529.63;5074731;28;19939;-60
2022/12/05 10:11:38;;;;;;;;;;;;;;;31.94;nan;101522.78;5074840;28;20403;-60
2022/12/05 10:14:07;;;;;;;;;;;;;;;31.78;nan;101520.28;5074703;28;19920;-61
2022/12/05 10:16:52;;;;;;;;;;;;;;;31.78;nan;101516.66;5074567;28;20378;-61
2022/12/05 10:19:23;;;;;;;;;;;;;;;31.65;nan;101523.75;5074596;28;19924;-61
2022/12/05 10:21:52;;;;;;;;;;;;;;;31.75;nan;101512.59;5074554;28;20042;-61
2022/12/05 10:24:26;;;;;;;;;;;;;;;31.73;nan;101514.19;5074643;28;19924;-61
2022/12/05 10:26:59;;;;;;;;;;;;;;;31.67;nan;101516.53;5070403;28;19920;-61
2022/12/05 10:29:29;;;;;;;;;;;;;;;31.58;nan;101519.66;5056908;28;19962;-61
2022/12/05 10:32:02;;;;;;;;;;;;;;;31.51;nan;101524.44;5066600;28;19966;-61
2022/12/05 10:34:31;;;;;;;;;;;;;;;31.51;nan;101521.63;5074460;28;20375;-61
2022/12/05 10:37:01;;;;;;;;;;;;;;;30.27;nan;101524.63;5072641;28;20581;-61
2022/12/05 10:39:27;;;;;;;;;;;;;;;29.17;nan;101523.63;5072323;28;19936;-61
2022/12/05 10:41:55;;;;;;;;;;;;;;;30.07;nan;101523.13;5054574;28;19916;-62
2022/12/05 10:44:23;;;;;;;;;;;;;;;29.95;nan;101517.72;5072364;28;20024;-62
2022/12/05 10:46:50;;;;;;;;;;;;;;;30.82;nan;101512.91;5072094;28;19927;-61
2022/12/05 10:49:17;;;;;;;;;;;;;;;31.22;nan;101515.75;5072121;28;20374;-61
2022/12/05 10:51:43;;;;;;;;;;;;;;;31.50;nan;101514.41;5073291;28;19923;-62
2022/12/05 10:54:24;;;;;;;;;;;;;;;31.55;nan;101514.03;5073678;28;20386;-62
2022/12/05 10:56:51;;;;;;;;;;;;;;;31.40;nan;101512.28;5069869;28;19931;-61
2022/12/05 10:59:22;;;;;;;;;;;;;;;31.37;nan;101519.50;5073991;28;19920;-62
2022/12/05 11:01:53;;;;;;;;;;;;;;;31.45;nan;101509.16;5055570;28;20607;-62
2022/12/05 11:04:22;;;;;;;;;;;;;;;31.31;nan;101509.81;5073866;28;19930;-61
2022/12/05 11:06:53;;;;;;;;;;;;;;;31.36;nan;101494.59;5073613;28;19939;-61
2022/12/05 11:09:21;;;;;;;;;;;;;;;31.20;nan;101494.88;5073694;28;19924;-60
2022/12/05 11:12:16;;;;;;;;;;;;;;;31.10;nan;101495.56;5073645;28;19916;-61
2022/12/05 11:15:15;;;;;;;;;;;;;;;31.30;nan;101496.16;5060218;28;19920;-61
2022/12/05 11:17:41;;;;;;;;;;;;;;;31.21;nan;101502.09;5023913;28;20271;-60
2022/12/05 11:20:17;;;;;;;;;;;;;;;31.21;nan;101494.47;5073518;28;19923;-60
2022/12/05 11:22:44;;;;;;;;;;;;;;;31.22;nan;101487.66;5073503;28;19959;-60
2022/12/05 11:25:29;;;;;;;;;;;;;;;31.29;nan;101484.13;5069968;28;20414;-60
2022/12/05 11:27:56;;;;;;;;;;;;;;;31.24;nan;101482.50;5044903;28;19920;-59
2022/12/05 11:30:26;;;;;;;;;;;;;;;31.20;nan;101486.44;5073345;28;19962;-61
2022/12/05 11:33:12;;;;;;;;;;;;;;;31.30;nan;101473.69;5073053;28;19920;-61
2022/12/05 11:35:39;;;;;;;;;;;;;;;31.37;nan;101470.94;5046207;28;19920;-61
2022/12/05 11:38:05;;;;;;;;;;;;;;;31.26;nan;101473.66;5073197;28;19916;-61
2022/12/05 11:40:38;;;;;;;;;;;;;;;31.19;nan;101477.19;5073161;28;19951;-60
2022/12/05 11:43:10;;;;;;;;;;;;;;;31.21;nan;101476.81;5073099;28;20329;-60
2022/12/05 11:45:44;;;;;;;;;;;;;;;31.06;nan;101466.59;5073218;28;20445;-61
2022/12/05 11:48:18;;;;;;;;;;;;;;;31.04;nan;101472.63;5047234;28;19986;-61
2022/12/05 11:50:47;;;;;;;;;;;;;;;30.96;nan;101466.13;5065387;28;19931;-61
2022/12/05 11:53:39;;;;;;;;;;;;;;;31.02;nan;101458.16;5055108;28;20442;-61
2022/12/05 11:56:18;;;;;;;;;;;;;;;30.84;nan;101457.97;5074531;28;19920;-61
2022/12/05 11:58:47;;;;;;;;;;;;;;;30.87;nan;101456.41;5080368;28;20401;-61
2022/12/05 12:01:32;;;;;;;;;;;;;;;31.02;nan;101452.53;5089665;28;19920;-61
2022/12/05 12:04:15;;;;;;;;;;;;;;;30.20;nan;101457.22;5079204;28;19924;-61
2022/12/05 12:06:44;;;;;;;;;;;;;;;31.10;nan;101448.63;5080838;28;19998;-61
2022/12/05 12:09:29;;;;;;;;;;;;;;;31.47;nan;101456.97;5088944;28;19920;-61
2022/12/05 12:11:55;;;;;;;;;;;;;;;30.60;nan;101456.50;5078667;28;19952;-61
2022/12/05 12:14:29;;;;;;;;;;;;;;;28.67;nan;101470.66;5082670;28;19917;-60
2022/12/05 12:16:59;;;;;;;;;;;;;;;30.12;nan;101461.13;5086821;28;19969;-61
2022/12/05 12:19:33;;;;;;;;;;;;;;;30.75;nan;101449.09;5076121;28;20352;-61
2022/12/05 12:21:59;;;;;;;;;;;;;;;29.69;nan;101463.28;5086424;28;19920;-61
2022/12/05 12:24:37;;;;;;;;;;;;;;;30.21;nan;101456.03;5082578;28;19916;-60
2022/12/05 12:27:03;;;;;;;;;;;;;;;30.87;nan;101457.22;5088643;28;19923;-61
2022/12/05 12:29:33;;;;;;;;;;;;;;;31.12;nan;101456.66;5076015;28;20003;-61
2022/12/05 12:32:14;;;;;;;;;;;;;;;31.28;nan;101454.44;5086445;28;19920;-61
2022/12/05 12:35:00;;;;;;;;;;;;;;;31.10;nan;101453.44;5084598;28;19924;-60
2022/12/05 12:37:47;;;;;;;;;;;;;;;31.21;nan;101459.97;5075953;28;19966;-62
2022/12/05 12:40:26;;;;;;;;;;;;;;;31.02;nan;101463.78;5080539;28;19920;-62
2022/12/05 12:43:09;;;;;;;;;;;;;;;30.98;nan;101458.13;5078944;28;19921;-61
2022/12/05 12:45:44;;;;;;;;;;;;;;;30.96;nan;101457.72;5089161;28;19927;-61
2022/12/05 12:48:25;;;;;;;;;;;;;;;30.76;nan;101456.31;5080166;28;20033;-61
2022/12/05 12:50:53;;;;;;;;;;;;;;;30.80;nan;101459.97;5078765;28;19928;-60
2022/12/05 12:53:38;;;;;;;;;;;;;;;30.88;nan;101460.81;5088881;28;20046;-60
2022/12/05 12:56:16;;;;;;;;;;;;;;;30.55;nan;101456.84;5068232;28;19943;-59
2022/12/05 12:58:45;;;;;;;;;;;;;;;30.46;nan;101469.56;5072426;28;19921;-60
2022/12/05 13:01:11;;;;;;;;;;;;;;;30.66;nan;101459.78;5062501;28;19917;-60
2022/12/05 13:03:40;;;;;;;;;;;;;;;30.66;nan;101474.63;5072273;28;19943;-60
2022/12/05 13:06:13;;;;;;;;;;;;;;;30.14;nan;101453.13;5072350;28;19954;-60
2022/12/05 13:08:39;;;;;;;;;;;;;;;30.12;nan;101472.34;5072131;28;19971;-60
2022/12/05 13:11:08;;;;;;;;;;;;;;;28.38;nan;101478.47;5072148;28;19916;-60
2022/12/05 13:13:37;;;;;;;;;;;;;;;29.05;nan;101475.38;5071974;28;19928;-62
2022/12/05 13:16:06;;;;;;;;;;;;;;;29.97;nan;101464.88;5061080;28;19967;-62
2022/12/05 13:18:33;;;;;;;;;;;;;;;30.36;nan;101465.44;5072300;28;19917;-62
2022/12/05 13:21:01;;;;;;;;;;;;;;;29.56;nan;101478.69;5071747;28;20436;-62